createdAt,value
2022-11-24T00:01:15.833Z,53.10
2022-11-24T00:03:43.986Z,53.03
2022-11-24T00:06:14.355Z,53.15
2022-11-24T00:08:42.902Z,53.13
2022-11-24T00:11:14.836Z,53.14
2022-11-24T00:13:42.087Z,52.89
2022-11-24T00:16:13.068Z,53.03
2022-11-24T00:18:41.029Z,52.90
2022-11-24T00:21:07.651Z,53.02
2022-11-24T00:23:35.491Z,53.07
2022-11-24T00:26:13.659Z,52.84
2022-11-24T00:28:41.234Z,53.03
2022-11-24T00:31:35.329Z,53.13
2022-11-24T00:34:11.834Z,53.08
2022-11-24T00:36:39.317Z,52.99
2022-11-24T00:39:14.619Z,53.12
2022-11-24T00:41:42.462Z,53.00
2022-11-24T00:44:09.046Z,53.03
2022-11-24T00:46:35.726Z,53.20
2022-11-24T00:49:02.408Z,53.07
2022-11-24T00:51:32.360Z,53.18
2022-11-24T00:54:00.920Z,53.12
2022-11-24T00:56:29.221Z,52.84
2022-11-24T00:58:56.510Z,53.01
2022-11-24T01:01:26.073Z,52.97
2022-11-24T01:03:54.669Z,53.08
2022-11-24T01:06:24.341Z,52.97
2022-11-24T01:08:51.960Z,53.00
2022-11-24T01:11:23.619Z,53.09
2022-11-24T01:13:53.740Z,53.02
2022-11-24T01:16:21.991Z,53.15
2022-11-24T01:18:49.357Z,52.84
2022-11-24T01:21:17.641Z,53.08
2022-11-24T01:23:45.163Z,53.11
2022-11-24T01:26:15.086Z,53.01
2022-11-24T01:28:47.105Z,53.05
2022-11-24T01:31:16.202Z,52.96
2022-11-24T01:33:43.486Z,53.05
2022-11-24T01:36:10.082Z,52.98
2022-11-24T01:38:36.595Z,53.06
2022-11-24T01:41:04.952Z,53.13
2022-11-24T01:43:31.834Z,52.99
2022-11-24T01:46:03.848Z,53.16
2022-11-24T01:48:40.068Z,52.98
2022-11-24T01:51:28.662Z,53.15
2022-11-24T01:54:04.592Z,53.14
2022-11-24T01:56:33.646Z,53.32
2022-11-24T01:59:02.832Z,53.10
2022-11-24T02:01:31.499Z,52.91
2022-11-24T02:04:00.429Z,52.83
2022-11-24T02:06:29.952Z,52.87
2022-11-24T02:09:13.450Z,52.86
2022-11-24T02:11:41.453Z,53.10
2022-11-24T02:14:11.564Z,52.97
2022-11-24T02:16:40.848Z,53.01
2022-11-24T02:19:23.160Z,53.28
2022-11-24T02:21:50.132Z,52.96
2022-11-24T02:24:28.563Z,53.04
2022-11-24T02:26:55.068Z,53.06
2022-11-24T02:29:21.753Z,53.12
2022-11-24T02:31:53.288Z,53.15
2022-11-24T02:34:20.983Z,52.99
2022-11-24T02:36:48.084Z,53.08
2022-11-24T02:39:16.031Z,53.19
2022-11-24T02:41:44.921Z,53.17
2022-11-24T02:44:14.421Z,52.88
2022-11-24T02:46:41.624Z,52.96
2022-11-24T02:49:08.653Z,53.02
2022-11-24T02:51:35.725Z,53.06
2022-11-24T02:54:02.752Z,52.98
2022-11-24T02:56:29.750Z,52.83
2022-11-24T02:58:56.784Z,52.83
2022-11-24T03:01:24.033Z,53.01
2022-11-24T03:03:50.634Z,52.94
2022-11-24T03:06:17.569Z,52.84
2022-11-24T03:08:44.525Z,53.02
2022-11-24T03:11:11.057Z,52.98
2022-11-24T03:13:38.042Z,52.86
2022-11-24T03:16:09.094Z,52.90
2022-11-24T03:18:35.622Z,52.76
2022-11-24T03:21:02.589Z,52.97
2022-11-24T03:23:29.638Z,52.95
2022-11-24T03:26:07.033Z,52.86
2022-11-24T03:28:33.544Z,53.20
2022-11-24T03:31:00.583Z,53.04
2022-11-24T03:33:27.137Z,53.20
2022-11-24T03:35:53.659Z,53.26
2022-11-24T03:38:21.141Z,52.95
2022-11-24T03:40:48.173Z,53.09
2022-11-24T03:43:14.697Z,53.23
2022-11-24T03:45:48.326Z,53.20
2022-11-24T03:48:18.727Z,53.03
2022-11-24T03:50:56.468Z,53.14
2022-11-24T03:53:24.763Z,53.05
2022-11-24T03:55:51.779Z,53.16
2022-11-24T03:58:19.400Z,53.17
2022-11-24T04:00:48.716Z,53.12
2022-11-24T04:03:15.296Z,52.98
2022-11-24T04:05:42.048Z,53.10
2022-11-24T04:08:09.709Z,52.92
2022-11-24T04:10:38.171Z,53.12
2022-11-24T04:13:10.787Z,53.02
2022-11-24T04:15:40.172Z,53.05
2022-11-24T04:18:08.286Z,53.15
2022-11-24T04:20:35.563Z,53.38
2022-11-24T04:23:02.493Z,52.91
2022-11-24T04:25:29.771Z,53.10
2022-11-24T04:27:57.785Z,52.95
2022-11-24T04:30:26.282Z,53.02
2022-11-24T04:32:53.110Z,53.07
2022-11-24T04:35:20.318Z,53.08
2022-11-24T04:37:47.400Z,53.08
2022-11-24T04:40:15.119Z,53.22
2022-11-24T04:42:42.424Z,53.21
2022-11-24T04:45:09.622Z,53.16
2022-11-24T04:47:36.657Z,53.28
2022-11-24T04:50:04.642Z,53.32
2022-11-24T04:52:31.271Z,53.09
2022-11-24T04:54:58.236Z,53.12
2022-11-24T04:57:26.838Z,53.04
2022-11-24T04:59:54.357Z,53.08
2022-11-24T05:02:22.840Z,53.35
2022-11-24T05:04:50.401Z,53.30
2022-11-24T05:07:19.561Z,53.12
2022-11-24T05:10:06.162Z,53.36
2022-11-24T05:12:33.381Z,53.19
2022-11-24T05:15:04.703Z,53.27
2022-11-24T05:17:33.671Z,53.30
2022-11-24T05:20:00.329Z,53.59
2022-11-24T05:22:29.926Z,53.10
2022-11-24T05:24:56.497Z,53.08
2022-11-24T05:27:24.003Z,53.23
2022-11-24T05:29:50.685Z,53.20
2022-11-24T05:32:20.741Z,53.36
2022-11-24T05:34:47.940Z,53.27
2022-11-24T05:37:14.532Z,53.32
2022-11-24T05:39:41.057Z,53.11
2022-11-24T05:42:26.534Z,53.31
2022-11-24T05:44:53.319Z,53.31
2022-11-24T05:47:20.873Z,53.38
2022-11-24T05:49:47.893Z,53.07
2022-11-24T05:52:15.463Z,53.24
2022-11-24T05:54:42.558Z,53.15
2022-11-24T05:57:09.791Z,53.15
2022-11-24T05:59:36.621Z,53.36
2022-11-24T06:02:03.444Z,53.22
2022-11-24T06:04:30.516Z,53.29
2022-11-24T06:06:57.123Z,53.28
2022-11-24T06:09:23.731Z,53.51
2022-11-24T06:11:50.778Z,53.21
2022-11-24T06:14:17.740Z,53.18
2022-11-24T06:16:44.705Z,53.16
2022-11-24T06:19:11.566Z,53.40
2022-11-24T06:21:38.105Z,53.09
2022-11-24T06:24:05.603Z,53.37
2022-11-24T06:26:32.799Z,53.45
2022-11-24T06:28:59.528Z,53.63
2022-11-24T06:31:26.249Z,53.45
2022-11-24T06:33:53.226Z,53.31
2022-11-24T06:36:20.446Z,53.29
2022-11-24T06:38:47.034Z,53.21
2022-11-24T06:41:15.848Z,53.50
2022-11-24T06:43:42.738Z,53.31
2022-11-24T06:46:09.465Z,53.20
2022-11-24T06:48:36.917Z,53.10
2022-11-24T06:51:08.357Z,53.50
2022-11-24T06:53:38.047Z,53.64
2022-11-24T06:56:10.719Z,54.11
2022-11-24T06:58:44.319Z,54.01
2022-11-24T07:01:21.906Z,53.95
2022-11-24T07:03:49.301Z,53.92
2022-11-24T07:06:16.764Z,54.13
2022-11-24T07:08:43.583Z,54.07
2022-11-24T07:11:15.464Z,54.12
2022-11-24T07:13:43.674Z,54.00
2022-11-24T07:16:22.685Z,54.38
2022-11-24T07:18:51.315Z,54.09
2022-11-24T07:21:19.693Z,53.99
2022-11-24T07:23:53.274Z,54.28
2022-11-24T07:26:20.036Z,54.01
2022-11-24T07:28:46.806Z,54.09
2022-11-24T07:31:17.219Z,54.23
2022-11-24T07:33:43.886Z,54.08
2022-11-24T07:36:10.868Z,54.11
2022-11-24T07:38:37.438Z,53.98
2022-11-24T07:41:09.977Z,54.28
2022-11-24T07:43:37.556Z,54.10
2022-11-24T07:46:10.006Z,54.04
2022-11-24T07:48:36.717Z,54.09
2022-11-24T07:51:04.683Z,54.11
2022-11-24T07:53:32.386Z,54.12
2022-11-24T07:56:01.296Z,53.97
2022-11-24T07:58:32.593Z,54.14
2022-11-24T08:01:00.559Z,53.88
2022-11-24T08:03:27.446Z,54.05
2022-11-24T08:08:45.720Z,54.83
2022-11-24T08:11:17.555Z,54.77
2022-11-24T08:13:44.749Z,54.81
2022-11-24T08:16:17.490Z,55.12
2022-11-24T08:18:45.157Z,54.88
2022-11-24T08:21:13.776Z,54.65
2022-11-24T08:23:41.536Z,54.79
2022-11-24T08:26:13.729Z,54.56
2022-11-24T08:28:40.487Z,54.66
2022-11-24T08:31:14.113Z,54.60
2022-11-24T08:33:41.153Z,54.42
2022-11-24T08:36:10.525Z,54.26
2022-11-24T08:38:37.472Z,54.14
2022-11-24T08:41:09.878Z,54.10
2022-11-24T08:43:37.195Z,54.07
2022-11-24T08:46:09.301Z,53.76
2022-11-24T08:48:36.416Z,53.79
2022-11-24T08:51:08.500Z,53.79
2022-11-24T08:53:35.142Z,53.75
2022-11-24T08:56:02.853Z,53.56
2022-11-24T08:58:30.952Z,53.45
2022-11-24T09:01:15.118Z,53.44
2022-11-24T09:03:49.703Z,53.42
2022-11-24T09:06:23.438Z,53.63
2022-11-24T09:08:51.246Z,53.45
2022-11-24T09:11:18.712Z,53.22
2022-11-24T09:13:45.900Z,53.20
2022-11-24T09:16:15.556Z,53.26
2022-11-24T09:18:42.578Z,53.20
2022-11-24T09:21:12.184Z,53.37
2022-11-24T09:23:39.603Z,53.43
2022-11-24T09:26:13.089Z,53.32
2022-11-24T09:28:40.182Z,53.39
2022-11-24T09:31:09.425Z,53.43
2022-11-24T09:33:37.382Z,53.59
2022-11-24T09:36:05.178Z,53.46
2022-11-24T09:38:32.618Z,53.37
2022-11-24T09:41:17.793Z,53.57
2022-11-24T09:44:02.316Z,53.55
2022-11-24T09:46:41.321Z,53.59
2022-11-24T09:49:15.428Z,53.67
2022-11-24T09:51:46.333Z,53.68
2022-11-24T09:54:21.920Z,53.81
2022-11-24T09:56:51.238Z,53.69
2022-11-24T09:59:21.548Z,53.87
2022-11-24T10:01:49.961Z,53.86
2022-11-24T10:04:20.967Z,53.88
2022-11-24T10:06:55.881Z,53.95
2022-11-24T10:09:40.597Z,54.10
2022-11-24T10:12:23.616Z,53.96
2022-11-24T10:15:12.632Z,54.01
2022-11-24T10:17:57.774Z,53.75
2022-11-24T10:20:51.714Z,53.91
2022-11-24T10:23:31.889Z,54.00
2022-11-24T10:26:01.080Z,54.26
2022-11-24T10:28:39.033Z,54.41
2022-11-24T10:31:33.250Z,54.37
2022-11-24T10:34:22.472Z,54.55
2022-11-24T10:36:55.171Z,54.61
2022-11-24T10:39:35.940Z,54.69
2022-11-24T10:42:26.839Z,54.70
2022-11-24T10:45:00.425Z,54.70
2022-11-24T10:47:27.420Z,54.67
2022-11-24T10:50:33.034Z,54.79
2022-11-24T10:53:08.768Z,55.00
2022-11-24T10:55:54.153Z,54.75
2022-11-24T10:58:26.841Z,54.81
2022-11-24T11:00:58.790Z,54.93
2022-11-24T11:03:31.819Z,54.79
2022-11-24T11:06:13.047Z,55.09
2022-11-24T11:08:39.875Z,54.77
2022-11-24T11:11:43.631Z,54.95
2022-11-24T11:14:12.912Z,54.74
2022-11-24T11:16:50.692Z,54.77
2022-11-24T11:19:49.340Z,55.02
2022-11-24T11:22:28.027Z,54.80
2022-11-24T11:25:09.849Z,54.81
2022-11-24T11:27:37.026Z,54.58
2022-11-24T11:36:15.858Z,54.35
2022-11-24T11:38:43.948Z,54.72
2022-11-24T11:41:20.931Z,54.53
2022-11-24T11:43:53.889Z,54.46
2022-11-24T11:46:21.223Z,54.55
2022-11-24T11:48:48.069Z,54.35
2022-11-24T11:51:32.922Z,54.42
2022-11-24T11:54:35.311Z,54.59
2022-11-24T11:57:16.898Z,54.76
2022-11-24T11:59:51.361Z,54.72
2022-11-24T12:03:11.021Z,55.02
2022-11-24T12:05:47.506Z,54.51
2022-11-24T12:09:18.702Z,54.81
2022-11-24T12:11:46.186Z,54.63
2022-11-24T12:14:51.006Z,54.86
2022-11-24T12:17:20.259Z,54.84
2022-11-24T12:20:01.734Z,54.79
2022-11-24T12:22:42.156Z,54.91
2022-11-24T12:25:11.424Z,54.73
2022-11-24T12:28:17.665Z,54.86
2022-11-24T12:31:19.444Z,55.05
2022-11-24T12:34:18.114Z,54.96
2022-11-24T12:36:54.088Z,54.91
2022-11-24T12:39:43.941Z,54.84
2022-11-24T12:42:22.185Z,55.08
2022-11-24T12:45:12.984Z,55.08
2022-11-24T12:48:09.798Z,55.21
2022-11-24T12:50:41.425Z,54.88
2022-11-24T12:53:19.909Z,54.89
2022-11-24T12:55:47.597Z,54.96
2022-11-24T12:58:14.040Z,55.19
2022-11-24T13:01:03.342Z,55.11
2022-11-24T13:03:56.417Z,55.56
2022-11-24T13:06:49.527Z,55.21
2022-11-24T13:09:16.478Z,55.15
2022-11-24T13:11:56.741Z,55.22
2022-11-24T13:14:37.722Z,55.06
2022-11-24T13:17:48.818Z,55.09
2022-11-24T13:20:20.169Z,55.12
2022-11-24T13:22:50.725Z,54.75
2022-11-24T13:25:23.661Z,55.13
2022-11-24T13:27:53.151Z,55.17
2022-11-24T13:30:35.082Z,54.95
2022-11-24T13:33:15.820Z,55.28
2022-11-24T13:36:01.842Z,55.40
2022-11-24T13:38:46.406Z,55.29
2022-11-24T13:41:31.501Z,55.25
2022-11-24T13:44:16.375Z,55.25
2022-11-24T13:47:06.107Z,55.25
2022-11-24T13:49:39.762Z,55.35
2022-11-24T13:52:43.822Z,55.34
2022-11-24T13:55:13.151Z,55.33
2022-11-24T13:57:49.169Z,55.42
2022-11-24T14:00:34.152Z,54.98
2022-11-24T14:03:27.694Z,55.00
2022-11-24T14:05:54.722Z,54.96
2022-11-24T14:08:31.125Z,54.87
2022-11-24T14:11:00.406Z,54.90
2022-11-24T14:13:32.243Z,55.10
2022-11-24T14:16:09.363Z,55.22
2022-11-24T14:18:38.821Z,55.20
2022-11-24T14:21:20.540Z,55.04
2022-11-24T14:23:52.221Z,55.15
2022-11-24T14:26:43.314Z,55.08
2022-11-24T14:29:14.781Z,55.37
2022-11-24T14:31:42.815Z,55.19
2022-11-24T14:34:12.048Z,55.36
2022-11-24T14:36:39.549Z,55.39
2022-11-24T14:39:06.575Z,55.51
2022-11-24T14:41:33.940Z,55.51
2022-11-24T14:44:16.126Z,55.72
2022-11-24T14:46:43.451Z,55.81
2022-11-24T14:49:10.958Z,55.78
2022-11-24T14:51:42.788Z,55.61
2022-11-24T14:54:20.119Z,55.97
2022-11-24T14:57:25.238Z,56.07
2022-11-24T15:00:13.875Z,55.93
2022-11-24T15:02:54.392Z,55.60
2022-11-24T15:05:23.153Z,55.67
2022-11-24T15:08:00.064Z,55.70
2022-11-24T15:10:37.466Z,55.67
2022-11-24T15:13:15.824Z,55.83
2022-11-24T15:15:49.930Z,55.97
2022-11-24T15:18:33.432Z,55.85
2022-11-24T15:21:00.577Z,55.40
2022-11-24T15:23:32.395Z,55.54
2022-11-24T15:26:01.660Z,55.52
2022-11-24T15:28:30.284Z,55.38
2022-11-24T15:31:01.458Z,55.37
2022-11-24T15:33:29.253Z,55.17
2022-11-24T15:35:56.210Z,55.05
2022-11-24T15:38:23.842Z,55.13
2022-11-24T15:40:56.254Z,55.27
2022-11-24T15:43:30.593Z,55.27
2022-11-24T15:45:58.134Z,55.06
2022-11-24T15:48:26.030Z,55.00
2022-11-24T15:50:53.542Z,54.85
2022-11-24T15:53:38.148Z,54.89
2022-11-24T15:56:09.123Z,54.86
2022-11-24T15:58:36.141Z,54.86
2022-11-24T16:01:02.799Z,54.80
2022-11-24T16:03:47.543Z,54.68
2022-11-24T16:06:24.590Z,54.78
2022-11-24T16:08:55.413Z,54.74
2022-11-24T16:11:23.273Z,54.75
2022-11-24T16:13:53.320Z,54.66
2022-11-24T16:16:21.820Z,54.64
2022-11-24T16:18:49.117Z,54.55
2022-11-24T16:21:15.749Z,54.61
2022-11-24T16:23:42.473Z,54.31
2022-11-24T16:26:10.563Z,54.18
2022-11-24T16:28:37.621Z,54.25
2022-11-24T16:31:04.747Z,54.27
2022-11-24T16:33:31.567Z,54.21
2022-11-24T16:35:58.763Z,54.10
2022-11-24T16:38:25.515Z,53.97
2022-11-24T16:40:53.877Z,54.01
2022-11-24T16:43:20.605Z,54.03
2022-11-24T16:46:00.531Z,54.24
2022-11-24T16:48:27.574Z,53.94
2022-11-24T16:50:54.983Z,53.91
2022-11-24T16:53:22.413Z,53.82
2022-11-24T16:55:57.657Z,53.73
2022-11-24T16:58:24.346Z,53.60
2022-11-24T17:00:51.628Z,53.64
2022-11-24T17:03:18.708Z,53.62
2022-11-24T17:05:56.008Z,53.43
2022-11-24T17:08:23.509Z,53.27
2022-11-24T17:10:50.120Z,53.32
2022-11-24T17:13:17.133Z,53.36
2022-11-24T17:15:48.368Z,53.23
2022-11-24T17:18:24.334Z,53.32
2022-11-24T17:20:51.662Z,53.46
2022-11-24T17:23:19.723Z,53.43
2022-11-24T17:25:47.026Z,53.33
2022-11-24T17:28:14.025Z,53.32
2022-11-24T17:30:41.037Z,53.37
2022-11-24T17:33:07.990Z,53.35
2022-11-24T17:35:35.392Z,53.36
2022-11-24T17:38:02.448Z,53.23
2022-11-24T17:40:29.750Z,53.31
2022-11-24T17:43:01.032Z,53.35
2022-11-24T17:45:29.571Z,53.16
2022-11-24T17:47:58.542Z,53.25
2022-11-24T17:50:26.404Z,53.12
2022-11-24T17:52:54.327Z,53.02
2022-11-24T17:55:21.750Z,52.98
2022-11-24T17:57:48.311Z,53.03
2022-11-24T18:00:15.424Z,52.86
2022-11-24T18:02:42.011Z,53.15
2022-11-24T18:05:08.905Z,52.99
2022-11-24T18:07:36.694Z,52.88
2022-11-24T18:10:04.276Z,52.92
2022-11-24T18:12:33.004Z,52.81
2022-11-24T18:14:59.905Z,52.82
2022-11-24T18:17:26.448Z,52.94
2022-11-24T18:19:53.469Z,52.81
2022-11-24T18:22:36.786Z,53.04
2022-11-24T18:25:07.123Z,52.95
2022-11-24T18:27:33.665Z,52.54
2022-11-24T18:30:00.286Z,52.75
2022-11-24T18:32:26.974Z,52.86
2022-11-24T18:34:54.173Z,52.96
2022-11-24T18:37:20.703Z,52.89
2022-11-24T18:39:47.283Z,52.89
2022-11-24T18:42:14.315Z,52.84
2022-11-24T18:44:42.394Z,52.93
2022-11-24T18:47:09.510Z,52.90
2022-11-24T18:49:36.565Z,52.81
2022-11-24T18:52:03.621Z,52.94
2022-11-24T18:54:30.184Z,52.92
2022-11-24T18:57:01.768Z,52.78
2022-11-24T18:59:29.794Z,52.66
2022-11-24T19:01:57.982Z,52.84
2022-11-24T19:04:26.281Z,52.89
2022-11-24T19:06:52.817Z,53.04
2022-11-24T19:09:20.799Z,53.15
2022-11-24T19:11:47.499Z,53.05
2022-11-24T19:14:16.969Z,53.03
2022-11-24T19:16:44.715Z,52.83
2022-11-24T19:19:12.594Z,53.08
2022-11-24T19:21:40.250Z,52.87
2022-11-24T19:24:10.162Z,52.96
2022-11-24T19:26:37.622Z,52.94
2022-11-24T19:29:05.859Z,52.94
2022-11-24T19:31:33.501Z,52.80
2022-11-24T19:34:00.199Z,52.94
2022-11-24T19:36:27.169Z,52.85
2022-11-24T19:38:55.934Z,52.99
2022-11-24T19:41:28.690Z,52.84
2022-11-24T19:43:56.430Z,52.95
2022-11-24T19:46:28.053Z,52.86
2022-11-24T19:48:57.077Z,52.88
2022-11-24T19:51:31.074Z,52.87
2022-11-24T19:53:58.425Z,52.92
2022-11-24T19:56:27.547Z,52.83
2022-11-24T19:58:55.341Z,52.95
2022-11-24T20:01:25.082Z,52.92
2022-11-24T20:04:07.601Z,52.74
2022-11-24T20:06:40.480Z,52.85
2022-11-24T20:09:11.187Z,52.86
2022-11-24T20:11:38.971Z,52.93
2022-11-24T20:14:07.446Z,52.64
2022-11-24T20:16:35.088Z,52.86
2022-11-24T20:19:07.486Z,53.00
2022-11-24T20:21:37.057Z,52.91
2022-11-24T20:24:09.372Z,52.87
2022-11-24T20:26:38.812Z,52.97
2022-11-24T20:29:06.708Z,53.12
2022-11-24T20:31:39.264Z,53.23
2022-11-24T20:34:07.246Z,53.13
2022-11-24T20:36:36.662Z,53.29
2022-11-24T20:39:07.061Z,53.07
2022-11-24T20:41:35.535Z,52.94
2022-11-24T20:44:05.064Z,53.08
2022-11-24T20:46:34.876Z,53.14
2022-11-24T20:49:03.407Z,53.33
2022-11-24T20:51:33.038Z,52.98
2022-11-24T20:54:02.383Z,53.24
2022-11-24T20:56:31.341Z,53.29
2022-11-24T20:58:58.795Z,53.00
2022-11-24T21:01:28.715Z,52.95
2022-11-24T21:03:57.981Z,53.09
2022-11-24T21:06:26.049Z,53.09
2022-11-24T21:08:52.720Z,53.45
2022-11-24T21:11:20.281Z,53.13
2022-11-24T21:13:48.874Z,53.06
2022-11-24T21:16:24.406Z,52.93
2022-11-24T21:18:55.042Z,53.10
2022-11-24T21:21:23.581Z,53.03
2022-11-24T21:23:50.850Z,53.12
2022-11-24T21:26:19.130Z,53.06
2022-11-24T21:28:47.489Z,53.00
2022-11-24T21:31:21.176Z,53.17
2022-11-24T21:33:49.821Z,52.92
2022-11-24T21:36:19.829Z,52.93
2022-11-24T21:38:54.583Z,53.14
2022-11-24T21:41:22.649Z,53.30
2022-11-24T21:43:50.139Z,52.90
2022-11-24T21:46:17.106Z,53.18
2022-11-24T21:48:43.882Z,53.39
2022-11-24T21:51:16.640Z,53.22
2022-11-24T21:53:44.102Z,53.36
2022-11-24T21:56:13.729Z,53.25
2022-11-24T21:58:57.300Z,53.41
2022-11-24T22:01:27.239Z,53.48
2022-11-24T22:03:54.920Z,53.32
2022-11-24T22:06:21.572Z,53.09
2022-11-24T22:08:49.539Z,53.15
2022-11-24T22:11:21.451Z,53.13
2022-11-24T22:13:49.054Z,53.22
2022-11-24T22:16:18.893Z,53.17
2022-11-24T22:18:46.381Z,53.19
2022-11-24T22:21:15.852Z,53.14
2022-11-24T22:23:42.666Z,53.03
2022-11-24T22:26:18.122Z,52.97
2022-11-24T22:28:45.548Z,53.20
2022-11-24T22:31:18.222Z,53.14
2022-11-24T22:33:45.501Z,53.25
2022-11-24T22:36:14.144Z,52.96
2022-11-24T22:38:41.396Z,53.26
2022-11-24T22:41:13.657Z,53.16
2022-11-24T22:43:41.884Z,53.07
2022-11-24T22:46:11.370Z,52.99
2022-11-24T22:48:38.870Z,53.43
2022-11-24T22:51:13.384Z,52.96
2022-11-24T22:53:41.453Z,53.04
2022-11-24T22:56:10.548Z,53.04
2022-11-24T22:58:38.763Z,53.22
2022-11-24T23:01:06.768Z,53.42
2022-11-24T23:03:35.102Z,53.09
2022-11-24T23:06:03.836Z,53.25
2022-11-24T23:08:33.215Z,53.38
2022-11-24T23:11:05.145Z,53.06
2022-11-24T23:13:31.710Z,53.38
2022-11-24T23:16:09.031Z,53.22
2022-11-24T23:18:36.310Z,53.45
2022-11-24T23:21:12.743Z,53.12
2022-11-24T23:23:39.817Z,52.61
2022-11-24T23:26:09.392Z,53.18
2022-11-24T23:28:36.420Z,53.43
2022-11-24T23:31:07.003Z,52.99
2022-11-24T23:33:33.572Z,52.75
2022-11-24T23:36:02.139Z,52.96
2022-11-24T23:38:30.280Z,52.81
2022-11-24T23:40:57.493Z,53.24
2022-11-24T23:43:24.160Z,53.24
2022-11-24T23:45:50.715Z,53.25
2022-11-24T23:48:18.027Z,53.26
2022-11-24T23:50:44.759Z,53.14
2022-11-24T23:53:11.733Z,52.96
2022-11-24T23:55:38.299Z,53.54
2022-11-24T23:58:05.598Z,52.99
